createdAt,value
2023-05-24T00:02:08.808Z,96081.47
2023-05-24T00:04:35.458Z,96082.06
2023-05-24T00:07:03.640Z,96083.22
2023-05-24T00:09:30.885Z,96084.19
2023-05-24T00:11:57.666Z,96072.34
2023-05-24T00:14:24.784Z,96074.88
2023-05-24T00:16:51.504Z,96078.31
2023-05-24T00:19:18.831Z,96080.97
2023-05-24T00:21:46.087Z,96077.41
2023-05-24T00:24:12.871Z,96078.31
2023-05-24T00:26:39.650Z,96065.75
2023-05-24T00:29:06.694Z,96069.44
2023-05-24T00:31:33.521Z,96074.97
2023-05-24T00:34:00.314Z,96065.16
2023-05-24T00:36:26.936Z,96064.06
2023-05-24T00:38:53.768Z,96069.16
2023-05-24T00:41:20.476Z,96061.00
2023-05-24T00:43:46.999Z,96062.59
2023-05-24T00:46:20.561Z,96063.97
2023-05-24T00:48:49.574Z,96064.94
2023-05-24T00:51:17.499Z,96057.28
2023-05-24T00:53:46.975Z,96064.94
2023-05-24T00:56:14.682Z,96061.31
2023-05-24T00:58:42.302Z,96061.13
2023-05-24T01:01:10.413Z,96065.41
2023-05-24T01:03:37.224Z,96060.59
2023-05-24T01:06:07.283Z,96065.34
2023-05-24T01:08:42.849Z,96057.59
2023-05-24T01:11:20.303Z,96058.84
2023-05-24T01:13:57.988Z,96057.00
2023-05-24T01:16:29.856Z,96059.66
2023-05-24T01:19:00.383Z,96050.81
2023-05-24T01:21:56.295Z,96058.97
2023-05-24T01:24:53.800Z,96046.66
2023-05-24T01:27:22.791Z,96043.25
2023-05-24T01:29:53.524Z,96044.00
2023-05-24T01:32:20.794Z,96044.34
2023-05-24T01:34:47.582Z,96045.63
2023-05-24T01:37:16.098Z,96047.66
2023-05-24T01:39:43.018Z,96050.88
2023-05-24T01:42:27.299Z,96051.00
2023-05-24T01:45:11.034Z,96044.41
2023-05-24T01:48:03.136Z,96048.28
2023-05-24T01:50:37.135Z,96049.25
2023-05-24T01:53:08.311Z,96042.19
2023-05-24T01:55:36.764Z,96045.69
2023-05-24T01:58:05.028Z,96052.22
2023-05-24T02:00:32.913Z,96048.88
2023-05-24T02:02:59.806Z,96052.78
2023-05-24T02:05:26.637Z,96051.03
2023-05-24T02:07:53.249Z,96039.06
2023-05-24T02:10:19.795Z,96048.19
2023-05-24T02:12:46.352Z,96045.06
2023-05-24T02:15:14.840Z,96048.78
2023-05-24T02:17:43.295Z,96043.97
2023-05-24T02:20:10.900Z,96043.16
2023-05-24T02:22:38.411Z,96050.63
2023-05-24T02:25:05.457Z,96056.34
2023-05-24T02:27:32.034Z,96055.94
2023-05-24T02:29:58.578Z,96056.53
2023-05-24T02:32:25.160Z,96048.66
2023-05-24T02:34:51.823Z,96051.03
2023-05-24T02:37:18.689Z,96047.09
2023-05-24T02:39:45.335Z,96046.03
2023-05-24T02:42:11.837Z,96049.06
2023-05-24T02:44:38.477Z,96045.94
2023-05-24T02:47:05.669Z,96041.59
2023-05-24T02:49:32.292Z,96043.28
2023-05-24T02:51:59.225Z,96042.97
2023-05-24T02:54:25.761Z,96037.97
2023-05-24T02:56:53.332Z,96034.16
2023-05-24T02:59:19.854Z,96037.09
2023-05-24T03:01:47.152Z,96043.19
2023-05-24T03:04:13.726Z,96042.41
2023-05-24T03:06:40.931Z,96042.81
2023-05-24T03:09:08.178Z,96042.19
2023-05-24T03:11:34.713Z,96034.56
2023-05-24T03:14:01.230Z,96040.84
2023-05-24T03:16:29.407Z,96039.16
2023-05-24T03:18:56.500Z,96035.53
2023-05-24T03:21:23.538Z,96040.75
2023-05-24T03:23:50.226Z,96039.47
2023-05-24T03:26:18.955Z,96044.84
2023-05-24T03:28:45.581Z,96048.50
2023-05-24T03:31:12.606Z,96044.34
2023-05-24T03:33:39.628Z,96040.63
2023-05-24T03:36:06.796Z,96046.47
2023-05-24T03:38:33.828Z,96053.38
2023-05-24T03:41:00.730Z,96047.28
2023-05-24T03:43:28.638Z,96048.09
2023-05-24T03:45:57.452Z,96049.72
2023-05-24T03:48:24.541Z,96044.44
2023-05-24T03:50:51.970Z,96045.78
2023-05-24T03:53:18.898Z,96048.38
2023-05-24T03:55:46.684Z,96057.66
2023-05-24T03:58:13.492Z,96055.34
2023-05-24T04:00:40.260Z,96058.25
2023-05-24T04:03:06.936Z,96065.72
2023-05-24T04:05:33.935Z,96067.19
2023-05-24T04:08:00.642Z,96074.72
2023-05-24T04:10:28.498Z,96068.66
2023-05-24T04:12:57.227Z,96072.88
2023-05-24T04:15:24.217Z,96076.66
2023-05-24T04:17:55.120Z,96076.97
2023-05-24T04:20:27.136Z,96073.63
2023-05-24T04:22:54.369Z,96068.50
2023-05-24T04:25:21.046Z,96073.63
2023-05-24T04:27:50.867Z,96082.72
2023-05-24T04:30:17.658Z,96074.66
2023-05-24T04:32:47.412Z,96073.88
2023-05-24T04:35:15.568Z,96067.31
2023-05-24T04:37:42.155Z,96070.31
2023-05-24T04:40:09.350Z,96069.72
2023-05-24T04:42:36.323Z,96078.97
2023-05-24T04:45:03.068Z,96077.31
2023-05-24T04:47:29.885Z,96082.81
2023-05-24T04:49:56.411Z,96071.50
2023-05-24T04:52:22.973Z,96084.88
2023-05-24T04:54:49.960Z,96087.41
2023-05-24T04:57:17.180Z,96081.53
2023-05-24T04:59:44.120Z,96085.16
2023-05-24T05:02:10.717Z,96081.34
2023-05-24T05:04:37.248Z,96086.44
2023-05-24T05:07:03.946Z,96075.63
2023-05-24T05:09:30.495Z,96084.97
2023-05-24T05:11:57.155Z,96081.81
2023-05-24T05:14:23.704Z,96083.94
2023-05-24T05:16:50.631Z,96087.13
2023-05-24T05:19:17.220Z,96087.78
2023-05-24T05:21:43.757Z,96087.78
2023-05-24T05:24:10.309Z,96085.13
2023-05-24T05:26:36.815Z,96095.13
2023-05-24T05:29:03.867Z,96095.06
2023-05-24T05:31:30.965Z,96093.41
2023-05-24T05:33:57.584Z,96081.41
2023-05-24T05:36:24.380Z,96096.41
2023-05-24T05:38:51.051Z,96088.91
2023-05-24T05:41:17.708Z,96090.91
2023-05-24T05:43:44.239Z,96087.78
2023-05-24T05:46:11.505Z,96077.34
2023-05-24T05:48:38.116Z,96076.75
2023-05-24T05:51:04.618Z,96083.81
2023-05-24T05:53:33.951Z,96080.47
2023-05-24T05:56:00.482Z,96078.84
2023-05-24T05:58:27.023Z,96074.41
2023-05-24T06:00:53.551Z,96069.88
2023-05-24T06:03:20.269Z,96069.59
2023-05-24T06:05:46.974Z,96068.28
2023-05-24T06:08:13.499Z,96058.78
2023-05-24T06:10:40.238Z,96064.28
2023-05-24T06:13:06.939Z,96070.75
2023-05-24T06:15:34.492Z,96071.16
2023-05-24T06:18:02.297Z,96071.84
2023-05-24T06:20:29.323Z,96070.28
2023-05-24T06:22:57.141Z,96071.09
2023-05-24T06:25:24.432Z,96063.63
2023-05-24T06:27:51.757Z,96069.91
2023-05-24T06:30:18.623Z,96060.81
2023-05-24T06:32:45.416Z,96061.78
2023-05-24T06:35:11.947Z,96071.50
2023-05-24T06:37:38.662Z,96069.25
2023-05-24T06:40:11.823Z,96057.38
2023-05-24T06:42:39.328Z,96060.81
2023-05-24T06:45:06.548Z,96080.53
2023-05-24T06:47:33.259Z,96080.06
2023-05-24T06:50:00.924Z,96080.44
2023-05-24T06:52:27.476Z,96080.16
2023-05-24T06:54:54.409Z,96078.13
2023-05-24T06:57:21.498Z,96079.88
2023-05-24T06:59:48.028Z,96086.91
2023-05-24T07:02:14.652Z,96090.59
2023-05-24T07:04:41.317Z,96096.22
2023-05-24T07:07:09.116Z,96091.19
2023-05-24T07:09:35.834Z,96086.84
2023-05-24T07:12:02.689Z,96087.75
2023-05-24T07:14:29.362Z,96092.47
2023-05-24T07:16:57.572Z,96095.81
2023-05-24T07:19:28.978Z,96099.13
2023-05-24T07:21:58.753Z,96099.41
2023-05-24T07:24:25.659Z,96096.28
2023-05-24T07:26:53.624Z,96101.16
2023-05-24T07:29:21.808Z,96099.69
2023-05-24T07:31:48.852Z,96095.47
2023-05-24T07:34:16.213Z,96103.44
2023-05-24T07:36:42.723Z,96108.53
2023-05-24T07:39:15.664Z,96106.22
2023-05-24T07:41:42.329Z,96092.63
2023-05-24T07:44:08.855Z,96103.72
2023-05-24T07:46:35.424Z,96091.06
2023-05-24T07:49:01.988Z,96099.00
2023-05-24T07:51:28.501Z,96099.09
2023-05-24T07:53:55.272Z,96099.09
2023-05-24T07:56:21.808Z,96097.63
2023-05-24T07:58:49.221Z,96096.25
2023-05-24T08:01:16.024Z,96104.59
2023-05-24T08:03:42.710Z,96110.94
2023-05-24T08:06:10.070Z,96106.25
2023-05-24T08:08:36.629Z,96111.56
2023-05-24T08:11:03.175Z,96109.09
2023-05-24T08:13:29.736Z,96100.34
2023-05-24T08:15:56.520Z,96111.47
2023-05-24T08:18:23.072Z,96118.34
2023-05-24T08:20:49.722Z,96113.19
2023-05-24T08:23:16.300Z,96117.53
2023-05-24T08:25:43.023Z,96112.78
2023-05-24T08:28:11.042Z,96119.69
2023-05-24T08:30:38.142Z,96116.53
2023-05-24T08:33:04.777Z,96117.53
2023-05-24T08:35:31.461Z,96130.59
2023-05-24T08:37:58.000Z,96123.44
2023-05-24T08:40:25.064Z,96121.09
2023-05-24T08:42:52.868Z,96127.59
2023-05-24T08:45:22.052Z,96123.47
2023-05-24T08:47:50.405Z,96130.75
2023-05-24T08:50:17.904Z,96125.25
2023-05-24T08:52:46.102Z,96124.09
2023-05-24T08:55:13.150Z,96134.38
2023-05-24T08:57:41.153Z,96121.16
2023-05-24T09:00:11.443Z,96130.19
2023-05-24T09:02:39.541Z,96115.72
2023-05-24T09:05:10.816Z,96124.38
2023-05-24T09:07:37.795Z,96114.44
2023-05-24T09:10:06.122Z,96116.81
2023-05-24T09:12:38.039Z,96107.78
2023-05-24T09:15:07.374Z,96123.84
2023-05-24T09:17:38.162Z,96125.63
2023-05-24T09:20:10.135Z,96131.13
2023-05-24T09:22:40.889Z,96127.00
2023-05-24T09:25:09.720Z,96139.38
2023-05-24T09:27:36.811Z,96127.88
2023-05-24T09:30:06.598Z,96125.28
2023-05-24T09:32:33.237Z,96124.69
2023-05-24T09:35:00.133Z,96132.66
2023-05-24T09:37:32.272Z,96126.66
2023-05-24T09:40:00.268Z,96134.25
2023-05-24T09:42:28.636Z,96133.19
2023-05-24T09:45:05.089Z,96137.00
2023-05-24T09:47:33.427Z,96129.44
2023-05-24T09:50:01.470Z,96116.22
2023-05-24T09:52:28.274Z,96121.88
2023-05-24T09:54:55.156Z,96121.41
2023-05-24T09:57:25.871Z,96124.19
2023-05-24T09:59:52.572Z,96112.69
2023-05-24T10:02:22.996Z,96140.38
2023-05-24T10:04:59.464Z,96132.03
2023-05-24T10:07:26.726Z,96121.81
2023-05-24T10:09:53.784Z,96128.69
2023-05-24T10:12:23.202Z,96139.78
2023-05-24T10:14:51.862Z,96139.00
2023-05-24T10:17:18.462Z,96137.03
2023-05-24T10:19:45.095Z,96134.97
2023-05-24T10:22:14.134Z,96141.25
2023-05-24T10:24:46.509Z,96141.94
2023-05-24T10:27:18.363Z,96149.22
2023-05-24T10:30:29.377Z,96154.53
2023-05-24T10:32:57.421Z,96143.91
2023-05-24T10:35:25.392Z,96142.75
2023-05-24T10:37:52.401Z,96147.56
2023-05-24T10:40:26.896Z,96150.97
2023-05-24T10:42:56.803Z,96157.66
2023-05-24T10:45:23.281Z,96145.41
2023-05-24T10:47:49.941Z,96152.28
2023-05-24T10:50:21.311Z,96143.50
2023-05-24T10:52:50.948Z,96147.16
2023-05-24T10:55:19.867Z,96150.50
2023-05-24T10:57:46.542Z,96145.19
2023-05-24T11:00:34.724Z,96142.81
2023-05-24T11:03:07.089Z,96146.38
2023-05-24T11:05:55.106Z,96160.59
2023-05-24T11:08:35.595Z,96146.47
2023-05-24T11:13:44.031Z,96143.72
2023-05-24T11:16:37.553Z,96147.84
2023-05-24T11:19:17.995Z,96141.34
2023-05-24T11:21:50.218Z,96145.25
2023-05-24T11:24:18.687Z,96148.00
2023-05-24T11:26:45.929Z,96147.03
2023-05-24T11:29:22.170Z,96151.16
2023-05-24T11:31:54.078Z,96147.41
2023-05-24T11:34:21.593Z,96143.38
2023-05-24T11:36:50.259Z,96139.16
2023-05-24T11:39:16.946Z,96138.75
2023-05-24T11:41:43.850Z,96141.56
2023-05-24T11:44:12.282Z,96147.69
2023-05-24T11:46:40.490Z,96147.00
2023-05-24T11:49:07.292Z,96142.84
2023-05-24T11:51:35.779Z,96144.53
2023-05-24T11:54:02.418Z,96142.66
2023-05-24T11:56:33.618Z,96147.69
2023-05-24T11:59:25.924Z,96145.91
2023-05-24T12:02:05.548Z,96138.22
2023-05-24T12:04:34.570Z,96144.63
2023-05-24T12:07:01.821Z,96142.63
2023-05-24T12:09:28.745Z,96141.47
2023-05-24T12:11:55.665Z,96145.63
2023-05-24T12:14:34.597Z,96143.25
2023-05-24T12:17:01.628Z,96150.94
2023-05-24T12:19:36.422Z,96145.63
2023-05-24T12:22:09.114Z,96143.16
2023-05-24T12:24:37.324Z,96144.06
2023-05-24T12:27:08.788Z,96144.75
2023-05-24T12:29:37.588Z,96146.00
2023-05-24T12:32:04.647Z,96145.69
2023-05-24T12:34:31.270Z,96146.59
2023-05-24T12:36:57.945Z,96150.41
2023-05-24T12:39:31.931Z,96148.56
2023-05-24T12:42:00.997Z,96156.31
2023-05-24T12:44:28.511Z,96155.16
2023-05-24T12:46:57.128Z,96148.47
2023-05-24T12:49:24.439Z,96152.44
2023-05-24T12:51:51.929Z,96150.53
2023-05-24T12:54:20.183Z,96147.81
2023-05-24T12:56:47.384Z,96147.03
2023-05-24T12:59:14.090Z,96139.38
2023-05-24T13:01:41.089Z,96134.84
2023-05-24T13:04:10.893Z,96134.53
2023-05-24T13:06:38.160Z,96129.72
2023-05-24T13:09:06.413Z,96131.50
2023-05-24T13:11:33.124Z,96119.09
2023-05-24T13:13:59.781Z,96124.19
2023-05-24T13:16:26.662Z,96135.38
2023-05-24T13:18:53.323Z,96126.50
2023-05-24T13:21:20.488Z,96131.13
2023-05-24T13:23:47.067Z,96126.69
2023-05-24T13:26:14.399Z,96121.94
2023-05-24T13:28:49.267Z,96117.63
2023-05-24T13:31:25.540Z,96119.59
2023-05-24T13:33:52.100Z,96126.00
2023-05-24T13:36:19.080Z,96126.59
2023-05-24T13:38:45.629Z,96128.16
2023-05-24T13:41:12.523Z,96125.69
2023-05-24T13:43:39.261Z,96120.84
2023-05-24T13:46:05.880Z,96124.78
2023-05-24T13:48:32.728Z,96128.91
2023-05-24T13:50:59.327Z,96136.56
2023-05-24T13:53:27.635Z,96128.00
2023-05-24T13:55:54.646Z,96131.16
2023-05-24T13:58:21.409Z,96132.56
2023-05-24T14:00:47.971Z,96132.75
2023-05-24T14:03:15.968Z,96132.75
2023-05-24T14:05:43.129Z,96137.72
2023-05-24T14:08:10.102Z,96133.09
2023-05-24T14:10:37.346Z,96136.53
2023-05-24T14:13:28.879Z,96131.09
2023-05-24T14:15:52.832Z,96138.94
2023-05-24T14:18:19.433Z,96137.97
2023-05-24T14:20:46.012Z,96129.06
2023-05-24T14:23:12.865Z,96132.22
2023-05-24T14:25:39.525Z,96132.56
2023-05-24T14:28:08.400Z,96134.16
2023-05-24T14:30:37.631Z,96137.50
2023-05-24T14:33:08.709Z,96135.78
2023-05-24T14:35:38.303Z,96131.69
2023-05-24T14:38:09.461Z,96127.28
2023-05-24T14:40:37.716Z,96135.59
2023-05-24T14:43:04.878Z,96135.78
2023-05-24T14:45:31.538Z,96126.00
2023-05-24T14:47:58.198Z,96126.19
2023-05-24T14:50:24.822Z,96113.38
2023-05-24T14:52:53.162Z,96116.06
2023-05-24T14:55:22.050Z,96117.75
2023-05-24T14:57:49.445Z,96117.25
2023-05-24T15:00:18.539Z,96119.19
2023-05-24T15:02:46.620Z,96117.94
2023-05-24T15:05:13.214Z,96106.25
2023-05-24T15:07:39.741Z,96117.56
2023-05-24T15:10:06.781Z,96109.25
2023-05-24T15:12:33.572Z,96106.75
2023-05-24T15:15:00.236Z,96108.47
2023-05-24T15:17:27.375Z,96103.94
2023-05-24T15:19:56.647Z,96106.16
2023-05-24T15:22:23.499Z,96097.72
2023-05-24T15:24:50.429Z,96091.94
2023-05-24T15:27:17.311Z,96091.94
2023-05-24T15:29:43.879Z,96097.59
2023-05-24T15:32:11.630Z,96095.69
2023-05-24T15:34:38.486Z,96098.19
2023-05-24T15:37:05.288Z,96095.84
2023-05-24T15:39:32.053Z,96084.75
2023-05-24T15:41:59.162Z,96092.47
2023-05-24T15:44:25.795Z,96086.03
2023-05-24T15:46:52.551Z,96084.28
2023-05-24T15:49:19.150Z,96079.59
2023-05-24T15:54:15.220Z,96081.63
2023-05-24T15:56:42.860Z,96080.69
2023-05-24T15:59:09.420Z,96080.19
2023-05-24T16:01:37.003Z,96081.94
2023-05-24T16:04:03.608Z,96083.19
2023-05-24T16:06:30.199Z,96074.88
2023-05-24T16:08:56.816Z,96089.66
2023-05-24T16:11:23.648Z,96080.56
2023-05-24T16:13:50.465Z,96068.78
2023-05-24T16:16:17.195Z,96065.16
2023-05-24T16:18:43.728Z,96069.25
2023-05-24T16:21:10.550Z,96070.00
2023-05-24T16:23:38.559Z,96074.25
2023-05-24T16:26:05.305Z,96061.91
2023-05-24T16:28:31.968Z,96056.75
2023-05-24T16:31:00.214Z,96053.13
2023-05-24T16:33:26.737Z,96064.56
2023-05-24T16:35:56.494Z,96064.09
2023-05-24T16:38:24.830Z,96068.44
2023-05-24T16:40:52.216Z,96066.41
2023-05-24T16:43:18.745Z,96048.81
2023-05-24T16:45:46.057Z,96057.44
2023-05-24T16:48:13.081Z,96062.72
2023-05-24T16:50:40.503Z,96067.13
2023-05-24T16:53:07.152Z,96054.75
2023-05-24T16:55:33.620Z,96066.22
2023-05-24T16:58:00.313Z,96067.41
2023-05-24T17:00:26.885Z,96069.13
2023-05-24T17:02:54.598Z,96064.16
2023-05-24T17:05:21.336Z,96061.94
2023-05-24T17:07:47.965Z,96073.34
2023-05-24T17:10:14.466Z,96077.09
2023-05-24T17:12:41.325Z,96060.94
2023-05-24T17:15:08.381Z,96067.63
2023-05-24T17:17:34.969Z,96070.44
2023-05-24T17:20:01.723Z,96072.00
2023-05-24T17:22:28.359Z,96071.81
2023-05-24T17:24:54.951Z,96078.38
2023-05-24T17:27:22.609Z,96080.38
2023-05-24T17:29:49.453Z,96077.50
2023-05-24T17:32:16.269Z,96081.72
2023-05-24T17:34:42.772Z,96056.31
2023-05-24T17:37:09.267Z,96084.06
2023-05-24T17:39:35.759Z,96084.50
2023-05-24T17:42:02.908Z,96088.28
2023-05-24T17:44:29.539Z,96093.41
2023-05-24T17:46:58.166Z,96078.66
2023-05-24T17:49:24.656Z,96079.53
2023-05-24T17:51:51.263Z,96090.81
2023-05-24T17:54:17.829Z,96091.72
2023-05-24T17:56:44.315Z,96090.41
2023-05-24T17:59:11.136Z,96090.28
2023-05-24T18:01:37.954Z,96097.94
2023-05-24T18:04:06.890Z,96091.00
2023-05-24T18:06:35.002Z,96085.16
2023-05-24T18:09:01.508Z,96104.00
2023-05-24T18:11:28.506Z,96099.47
2023-05-24T18:13:55.031Z,96108.66
2023-05-24T18:16:21.580Z,96116.09
2023-05-24T18:18:48.087Z,96100.16
2023-05-24T18:21:14.887Z,96109.22
2023-05-24T18:23:42.426Z,96127.13
2023-05-24T18:26:10.996Z,96124.19
2023-05-24T18:28:38.387Z,96122.63
2023-05-24T18:31:08.465Z,96136.59
2023-05-24T18:33:35.291Z,96124.53
2023-05-24T18:36:04.476Z,96146.16
2023-05-24T18:38:33.693Z,96135.28
2023-05-24T18:41:00.506Z,96142.75
2023-05-24T18:43:27.038Z,96143.81
2023-05-24T18:45:53.739Z,96147.06
2023-05-24T18:48:21.638Z,96160.81
2023-05-24T18:50:49.879Z,96156.59
2023-05-24T18:53:16.427Z,96166.81
2023-05-24T18:55:43.396Z,96151.78
2023-05-24T18:58:10.166Z,96158.75
2023-05-24T19:00:36.678Z,96158.44
2023-05-24T19:03:03.364Z,96163.19
2023-05-24T19:05:29.914Z,96173.88
2023-05-24T19:07:57.518Z,96170.03
2023-05-24T19:10:24.062Z,96168.19
2023-05-24T19:12:50.614Z,96165.50
2023-05-24T19:15:17.253Z,96172.00
2023-05-24T19:17:43.866Z,96159.41
2023-05-24T19:20:11.565Z,96164.28
2023-05-24T19:22:38.210Z,96172.31
2023-05-24T19:25:05.076Z,96178.41
2023-05-24T19:27:31.600Z,96147.22
2023-05-24T19:30:00.008Z,96168.34
2023-05-24T19:32:26.699Z,96179.16
2023-05-24T19:34:53.258Z,96173.50
2023-05-24T19:37:20.822Z,96167.91
2023-05-24T19:39:47.448Z,96187.31
2023-05-24T19:42:14.216Z,96192.19
2023-05-24T19:44:40.870Z,96202.66
2023-05-24T19:47:07.371Z,96197.78
2023-05-24T19:49:34.101Z,96201.72
2023-05-24T19:52:00.599Z,96203.38
2023-05-24T19:54:27.105Z,96206.66
2023-05-24T19:56:55.820Z,96215.97
2023-05-24T19:59:22.427Z,96218.97
2023-05-24T20:01:49.045Z,96195.50
2023-05-24T20:04:15.844Z,96208.19
2023-05-24T20:06:42.653Z,96216.16
2023-05-24T20:09:09.431Z,96190.78
2023-05-24T20:11:36.051Z,96197.84
2023-05-24T20:14:02.964Z,96216.53
2023-05-24T20:16:30.743Z,96211.22
2023-05-24T20:18:57.314Z,96207.81
2023-05-24T20:21:23.844Z,96202.00
2023-05-24T20:23:57.277Z,96181.19
2023-05-24T20:26:24.436Z,96197.84
2023-05-24T20:28:51.977Z,96188.19
2023-05-24T20:31:18.673Z,96203.50
2023-05-24T20:33:45.358Z,96197.41
2023-05-24T20:36:11.876Z,96186.69
2023-05-24T20:38:39.586Z,96196.75
2023-05-24T20:41:06.233Z,96190.41
2023-05-24T20:43:32.807Z,96195.19
2023-05-24T20:46:00.019Z,96187.31
2023-05-24T20:48:26.524Z,96197.34
2023-05-24T20:50:53.055Z,96197.06
2023-05-24T20:53:19.555Z,96197.09
2023-05-24T20:55:46.248Z,96195.75
2023-05-24T20:58:13.734Z,96188.75
2023-05-24T21:00:41.048Z,96197.91
2023-05-24T21:03:08.623Z,96197.69
2023-05-24T21:05:36.510Z,96188.44
2023-05-24T21:08:03.752Z,96195.88
2023-05-24T21:10:30.502Z,96180.09
2023-05-24T21:12:57.016Z,96202.50
2023-05-24T21:15:24.943Z,96205.22
2023-05-24T21:17:51.515Z,96199.81
2023-05-24T21:20:18.095Z,96213.78
2023-05-24T21:22:46.067Z,96209.28
2023-05-24T21:25:12.708Z,96207.72
2023-05-24T21:27:39.507Z,96214.50
2023-05-24T21:30:06.882Z,96203.75
2023-05-24T21:32:33.506Z,96209.84
2023-05-24T21:35:00.122Z,96209.63
2023-05-24T21:37:26.709Z,96212.53
2023-05-24T21:39:53.219Z,96206.31
2023-05-24T21:42:19.694Z,96209.97
2023-05-24T21:44:46.189Z,96217.91
2023-05-24T21:47:12.706Z,96216.41
2023-05-24T21:49:39.471Z,96223.28
2023-05-24T21:52:05.976Z,96217.91
2023-05-24T21:54:32.533Z,96214.28
2023-05-24T21:56:59.004Z,96228.56
2023-05-24T21:59:25.480Z,96201.69
2023-05-24T22:01:52.029Z,96221.44
2023-05-24T22:04:56.483Z,96212.88
2023-05-24T22:07:41.611Z,96219.53
2023-05-24T22:10:08.496Z,96220.34
2023-05-24T22:12:35.333Z,96220.16
2023-05-24T22:15:02.238Z,96220.34
2023-05-24T22:17:33.061Z,96224.06
2023-05-24T22:20:05.525Z,96224.34
2023-05-24T22:22:32.164Z,96213.50
2023-05-24T22:25:02.082Z,96213.78
2023-05-24T22:27:29.634Z,96223.81
2023-05-24T22:29:56.248Z,96227.50
2023-05-24T22:32:22.847Z,96223.00
2023-05-24T22:34:49.406Z,96226.97
2023-05-24T22:37:16.860Z,96223.28
2023-05-24T22:39:45.066Z,96226.97
2023-05-24T22:42:11.727Z,96227.78
2023-05-24T22:44:38.386Z,96233.34
2023-05-24T22:47:05.017Z,96236.00
2023-05-24T22:49:34.054Z,96235.22
2023-05-24T22:52:01.003Z,96216.72
2023-05-24T22:54:27.590Z,96220.44
2023-05-24T22:56:54.133Z,96213.06
2023-05-24T22:59:21.005Z,96215.47
2023-05-24T23:01:47.585Z,96206.97
2023-05-24T23:04:20.326Z,96212.56
2023-05-24T23:06:48.854Z,96210.44
2023-05-24T23:09:15.434Z,96219.13
2023-05-24T23:11:42.905Z,96214.88
2023-05-24T23:14:11.224Z,96214.31
2023-05-24T23:16:40.208Z,96217.22
2023-05-24T23:19:07.017Z,96211.38
2023-05-24T23:21:33.929Z,96205.06
2023-05-24T23:24:02.104Z,96208.53
2023-05-24T23:26:28.858Z,96202.75
2023-05-24T23:28:55.484Z,96203.25
2023-05-24T23:31:22.398Z,96204.56
2023-05-24T23:33:48.999Z,96205.63
2023-05-24T23:36:15.650Z,96191.69
2023-05-24T23:38:42.138Z,96206.38
2023-05-24T23:41:08.677Z,96201.69
2023-05-24T23:43:35.340Z,96196.72
2023-05-24T23:46:01.871Z,96206.41
2023-05-24T23:48:28.408Z,96211.19
2023-05-24T23:50:55.004Z,96202.81
2023-05-24T23:53:21.794Z,96211.44
2023-05-24T23:55:48.325Z,96204.84
2023-05-24T23:58:14.871Z,96202.25
